Etusivu
METAR-TAF:

METAR-TAF

Lentoasemat :

Worthington Municipal Airport

Worthington, Minnesota, Yhdysvallat

Leveyspiiri: 43-39N, Pituuspiiri: 095-35W, korkeus merenpinnasta: 480 m

Tämänhetkinen sää

Tämä raportti tehtiin 10 minuuttia sitten, kello 09.56 UTC
Tuuli 8 kn pohjoisesta
Lämpötila -16°C
Kosteus 84%
Ilmanpaine 1035 hPa
Näkyvyys: 16.1 km
Muutamia pilviä 4800 ft:n korkeudessa
Hajonneita pilviä 7000 ft:n korkeudessa
Pilvistä 9500 ft:n korkeudessa

METAR: KOTG 190956Z AUTO 36008KT 10SM FEW048 BKN070 OVC095 M16/M18 A3056 RMK AO2 SLP388 T11561178 FZRANO

Aika: 04:06 (10:06 UTC)


TAF: puuttuu

Säähavainnot ja -ennusteet yli 4000 lentoasemalta (METAR- ja TAF-raportit).

Käytössä olevat sääasemat on merkitty karttaan keltaisilla ja punaisilla pisteillä.

Aseta hiiri pisteen päälle nähdäksesi sääaseman nimen.

Klikkaa sitten nähdäksesi säähavainnot ja -ennusteet.

Kartan vaihtaminen: klikkaa mustalla rastilla varustettuja vihreitä pisteitä, niin voit zoomata sisään; viivalla varustettua vihreää pistettä, niin voit zoomata ulos tai vihreitä nuolia, niin pääset viereisille kartoille.


METAR-TAF: